Terminal Aerodrome Forecast
Issued by NWS Cleveland, OH

Home | Current Version | Previous Version | Graphics & Text | Print | Product List | Glossary On
Versions: 1 2 3 4 5 6 7 8 9 10 11 12 13 14 15 16
251
FTUS41 KCLE 242336
TAFMFD
TAF
KMFD 242336Z 2500/2524 18010KT P6SM SCT040 BKN150
     FM250700 21005KT 4SM BR SCT200
     FM251200 24006KT P6SM VCTS BKN035CB OVC080
     FM251600 26008KT P6SM SCT035 BKN100=

USA.gov is the U.S. government's official web portal to all federal, state and local government web resources and services.